Terminal Aerodrome Forecast
Issued by NWS

Home | Current Version | Previous Version | Text Only | Print | Product List | Glossary On
Versions: 1 2 3 4 5 6 7 8 9 10 11 12 13 14 15 16 17 18 19 20 21 22 23
000
FTPA31 PHFO 311139
TAFHNY
TAF
PHNY 311139Z 3112/0112 05012KT P6SM VCSH SCT015 BKN025 BKN080
     FM311900 05020G28KT P6SM SCT015 BKN035
     FM312300 05026G33KT P6SM SCT015 BKN035
     FM010400 05015G25KT P6SM VCSH SCT025 BKN040=

USA.gov is the U.S. government's official web portal to all federal, state and local government web resources and services.